Latest Weather Observations for Beerburrum

IDQ60901

Issued at 6:01 pm EST Monday 23 October 2017 (issued every 10 minutes, with the page automatically refreshed every 10 minutes)

About weather observations | Map of Brisbane area stations | Latest observations for Brisbane area | Other Formats
Station Details ID: 040284 Name: BEERBURRUM FOREST STATION Lat: -26.96 Lon: 152.96 Height: 48.0 m
Data from the previous 72 hours. | See also: Recent months at Beerburrum
Date/Time
EST
Temp
°C
App
Temp
°C
Dew
Point
°C
Rel
Hum
%
Delta-T
°C
Wind Press
QNH
hPa
Press
MSL
hPa
Rain since
9am
mm
Dir  Spd
km/h
Gust
km/h
Spd
kts
Gust
kts
23/06:00pm 15.4 15.6 13.2 87 1.2 NNE 4 9 2 5 - - 10.6
23/05:30pm 15.8 16.5 13.5 86 1.3 NW 2 7 1 4 - - 10.6
23/05:00pm 16.5 16.7 14.2 86 1.3 WNW 6 11 3 6 - - 10.6
23/04:30pm 16.8 16.8 14.1 84 1.5 N 7 13 4 7 - - 10.6
23/04:00pm 16.0 17.2 13.7 86 1.3 CALM 0 6 0 3 - - 10.0
23/03:30pm 18.0 17.0 12.2 69 3.2 SW 9 17 5 9 - - 5.4
23/03:00pm 20.9 22.0 14.5 67 3.7 SE 2 7 1 4 - - 5.4
23/02:30pm 21.2 22.9 15.3 69 3.5 CALM 0 0 0 0 - - 5.4
23/02:00pm 20.9 21.7 14.8 68 3.6 NNE 4 9 2 5 - - 5.4
23/01:30pm 21.1 21.6 15.0 68 3.6 NE 6 9 3 5 - - 5.4
23/01:00pm 19.9 20.7 14.7 72 3.0 SSE 4 7 2 4 - - 5.4
23/12:30pm 18.3 20.3 15.9 86 1.4 CALM 0 0 0 0 - - 5.4
23/12:00pm 20.4 21.1 13.4 64 4.0 ESE 2 13 1 7 - - 0.2
23/11:30am 21.2 21.4 14.1 64 4.1 ESE 6 11 3 6 - - 0.2
23/11:00am 21.9 22.0 13.8 60 4.7 SSE 6 11 3 6 - - 0.2
23/10:30am 23.1 22.6 12.7 52 6.0 E 7 15 4 8 - - 0.2
23/10:00am 21.8 21.6 13.7 60 4.7 E 7 13 4 7 - - 0.2
23/09:30am 22.2 21.7 12.7 55 5.4 ENE 7 9 4 5 - - 0.2
23/09:00am 21.8 22.0 14.7 64 4.2 NE 7 13 4 7 - - 0.0
23/08:30am 20.0 20.2 14.1 69 3.4 S 6 9 3 5 - - 0.0
23/08:00am 19.0 20.1 14.5 75 2.6 SSW 2 11 1 6 - - 0.0
23/07:30am 18.2 18.2 13.7 75 2.6 S 6 7 3 4 - - 0.0
23/07:00am 16.0 17.0 14.4 90 0.9 WSW 2 7 1 4 - - 0.0
23/06:30am 14.4 15.3 13.0 91 0.8 CALM 0 0 0 0 - - 0.0
23/06:00am 14.9 14.9 13.6 92 0.7 SSW 6 9 3 5 - - 0.0
23/05:30am 15.3 15.9 14.2 93 0.6 SW 4 9 2 5 - - 0.0
23/05:00am 15.2 16.5 14.1 93 0.6 CALM 0 0 0 0 - - 0.0
23/04:30am 14.7 15.8 13.6 93 0.6 CALM 0 0 0 0 - - 0.0
23/04:00am 14.7 15.8 13.6 93 0.6 CALM 0 0 0 0 - - 0.0
23/03:30am 14.2 15.2 13.1 93 0.6 CALM 0 0 0 0 - - 0.0
23/03:00am 13.8 14.2 12.5 92 0.7 SW 2 6 1 3 - - 0.0
23/02:30am 13.6 14.3 12.3 92 0.7 CALM 0 0 0 0 - - 0.0
23/02:00am 14.1 15.0 13.0 93 0.6 CALM 0 0 0 0 - - 0.0
23/01:30am 13.8 14.6 12.5 92 0.7 CALM 0 0 0 0 - - 0.0
23/01:00am 13.9 14.3 12.6 92 0.7 SW 2 6 1 3 - - 0.0
23/12:30am 14.0 14.8 12.6 91 0.8 CALM 0 0 0 0 - - 0.0
23/12:00am 14.3 15.1 12.7 90 0.9 CALM 0 0 0 0 - - 0.0
 
Date/Time
EST
Temp
°C
App
Temp
°C
Dew
Point
°C
Rel
Hum
%
Delta-T
°C
Wind Press
QNH
hPa
Press
MSL
hPa
Rain since
9am
mm
Dir  Spd
km/h
Gust
km/h
Spd
kts
Gust
kts
22/11:30pm 14.8 15.8 13.2 90 0.9 CALM 0 0 0 0 - - 0.0
22/11:00pm 15.4 16.5 13.6 89 1.0 CALM 0 0 0 0 - - 0.0
22/10:30pm 16.1 17.5 14.3 89 1.0 CALM 0 0 0 0 - - 0.0
22/10:00pm 16.2 17.5 14.2 88 1.1 CALM 0 0 0 0 - - 0.0
22/09:30pm 16.6 18.1 14.6 88 1.1 CALM 0 0 0 0 - - 0.0
22/09:00pm 16.6 18.1 14.6 88 1.1 CALM 0 0 0 0 - - 0.0
22/08:30pm 16.4 17.7 14.1 86 1.3 CALM 0 0 0 0 - - 0.0
22/08:00pm 16.7 17.9 13.8 83 1.6 CALM 0 0 0 0 - - 0.0
22/07:30pm 17.2 18.4 13.9 81 1.9 CALM 0 0 0 0 - - 0.0
22/07:00pm 17.6 18.8 13.7 78 2.2 CALM 0 0 0 0 - - 0.0
22/06:30pm 18.2 19.2 13.3 73 2.8 CALM 0 0 0 0 - - 0.0
22/06:00pm 19.7 20.8 13.6 68 3.5 CALM 0 0 0 0 - - 0.0
22/05:30pm 20.8 20.8 13.7 64 4.1 E 6 9 3 5 - - 0.0
22/05:00pm 21.3 21.0 13.2 60 4.6 E 7 11 4 6 - - 0.0
22/04:30pm 21.5 21.3 12.9 58 4.9 E 6 13 3 7 - - 0.0
22/04:00pm 22.2 21.8 13.0 56 5.3 E 7 13 4 7 - - 0.0
22/03:30pm 24.0 23.5 12.6 49 6.6 ESE 7 13 4 7 - - 0.0
22/03:00pm 24.1 23.2 10.7 43 7.5 SE 6 9 3 5 - - 0.0
22/02:30pm 24.6 23.8 11.2 43 7.5 N 6 13 3 7 - - 0.0
22/02:00pm 24.0 23.2 11.7 46 7.0 SE 7 13 4 7 - - 0.0
22/01:30pm 23.4 22.7 12.1 49 6.4 ESE 7 13 4 7 - - 0.0
22/01:00pm 23.6 22.6 12.3 49 6.4 ESE 9 19 5 10 - - 0.0
22/12:30pm 23.9 23.3 11.6 46 6.9 S 6 11 3 6 - - 0.0
22/12:00pm 23.3 22.6 11.4 47 6.7 WSW 6 9 3 5 - - 0.0
22/11:30am 23.7 23.0 11.4 46 6.9 NE 6 11 3 6 - - 0.0
22/11:00am 23.0 21.9 10.8 46 6.8 E 7 13 4 7 - - 0.0
22/10:30am 22.8 22.5 12.7 53 5.8 SW 6 9 3 5 - - 0.0
22/10:00am 21.4 20.4 10.9 51 5.8 S 7 13 4 7 - - 0.0
22/09:30am 21.1 20.1 12.3 57 5.0 SSW 9 19 5 10 - - 0.0
22/09:00am 20.3 19.4 12.5 61 4.4 SSW 9 15 5 8 - - 17.0
22/08:30am 20.0 19.7 13.2 65 3.9 SSW 7 15 4 8 - - 17.0
22/08:00am 19.1 19.4 13.3 69 3.3 SW 4 9 2 5 - - 16.8
22/07:30am 17.8 18.3 13.9 78 2.2 SW 4 9 2 5 - - 16.8
22/07:00am 16.4 16.7 13.5 83 1.6 SW 4 9 2 5 - - 16.8
22/06:30am 14.5 14.8 13.5 94 0.6 SSW 4 7 2 4 - - 16.8
22/06:00am 12.7 13.3 11.8 94 0.5 CALM 0 0 0 0 - - 16.8
22/05:30am 11.8 12.1 10.9 94 0.5 CALM 0 0 0 0 - - 16.8
22/05:00am 11.8 12.1 10.9 94 0.5 CALM 0 0 0 0 - - 16.8
22/04:30am 11.9 12.2 10.8 93 0.6 CALM 0 0 0 0 - - 16.8
22/04:00am 12.1 12.4 11.0 93 0.6 CALM 0 0 0 0 - - 16.8
22/03:30am 12.3 12.7 11.2 93 0.6 CALM 0 0 0 0 - - 16.8
22/03:00am 12.5 12.9 11.4 93 0.6 CALM 0 0 0 0 - - 16.8
22/02:30am 12.9 13.1 12.0 94 0.5 SW 2 6 1 3 - - 16.8
22/02:00am 13.0 13.6 11.9 93 0.6 CALM 0 0 0 0 - - 16.8
22/01:30am 13.2 13.9 12.1 93 0.6 CALM 0 0 0 0 - - 16.8
22/01:00am 13.3 14.0 12.2 93 0.6 CALM 0 4 0 2 - - 16.8
22/12:30am 13.5 14.3 12.4 93 0.6 CALM 0 0 0 0 - - 16.8
22/12:00am 13.7 14.5 12.6 93 0.6 CALM 0 0 0 0 - - 16.8
 
Date/Time
EST
Temp
°C
App
Temp
°C
Dew
Point
°C
Rel
Hum
%
Delta-T
°C
Wind Press
QNH
hPa
Press
MSL
hPa
Rain since
9am
mm
Dir  Spd
km/h
Gust
km/h
Spd
kts
Gust
kts
21/11:30pm 14.1 15.0 13.0 93 0.6 CALM 0 0 0 0 - - 16.8
21/11:00pm 14.4 15.1 13.3 93 0.6 SW 2 6 1 3 - - 16.8
21/10:30pm 14.6 15.7 13.5 93 0.6 CALM 0 0 0 0 - - 16.8
21/10:00pm 15.1 15.2 14.0 93 0.6 SW 6 7 3 4 - - 16.8
21/09:30pm 15.2 16.5 14.1 93 0.6 CALM 0 6 0 3 - - 16.8
21/09:00pm 15.3 16.6 14.2 93 0.6 CALM 0 0 0 0 - - 16.8
21/08:30pm 15.3 16.6 14.2 93 0.6 CALM 0 0 0 0 - - 16.8
21/08:00pm 15.3 15.9 14.2 93 0.6 SSW 4 6 2 3 - - 16.8
21/07:30pm 15.4 16.8 14.3 93 0.6 CALM 0 0 0 0 - - 16.6
21/07:00pm 15.5 16.5 14.4 93 0.6 SW 2 7 1 4 - - 16.6
21/06:30pm 15.5 16.8 14.2 92 0.7 CALM 0 0 0 0 - - 15.8
21/06:00pm 15.6 17.0 14.3 92 0.7 CALM 0 4 0 2 - - 15.4
21/05:30pm 15.8 17.2 14.5 92 0.7 CALM 0 6 0 3 - - 14.4
21/05:00pm 16.1 16.5 14.8 92 0.7 SSW 6 9 3 5 - - 13.4
21/04:30pm 16.3 17.2 15.0 92 0.8 SSW 4 7 2 4 - - 12.6
21/04:00pm 16.3 16.6 15.0 92 0.8 SSW 7 11 4 6 - - 11.4
21/03:30pm 16.6 17.0 15.3 92 0.8 SSW 7 15 4 8 - - 10.2
21/03:00pm 16.5 16.1 15.2 92 0.8 S 11 24 6 13 - - 7.6
21/02:30pm 16.7 16.7 15.1 90 0.9 S 9 20 5 11 - - 6.4
21/02:00pm 17.1 17.7 15.8 92 0.8 SSW 7 17 4 9 - - 6.0
21/01:30pm 17.3 17.5 15.8 91 0.9 SSE 9 15 5 8 - - 4.8
21/01:00pm 17.6 18.3 16.1 91 0.9 SSE 7 17 4 9 - - 3.4
21/12:30pm 17.6 17.9 15.9 90 1.0 SSE 9 20 5 11 - - 2.6
21/12:00pm 18.5 20.0 16.7 89 1.1 S 4 9 2 5 - - 1.6
21/11:30am 18.8 20.5 17.1 90 1.0 S 4 7 2 4 - - 1.6
21/11:00am 18.6 21.0 16.9 90 1.0 CALM 0 0 0 0 - - 1.4
21/10:30am 18.4 20.7 16.7 90 1.0 CALM 0 6 0 3 - - 1.4
21/10:00am 18.3 20.5 16.6 90 1.0 CALM 0 6 0 3 - - 1.4
21/09:30am 18.2 19.3 16.5 90 1.0 SSW 6 9 3 5 - - 1.0
21/09:00am 18.3 20.5 16.6 90 1.0 CALM 0 0 0 0 - - 2.6
21/08:30am 18.0 19.4 16.3 90 1.0 NNE 4 6 2 3 - - 1.8
21/08:00am 17.9 19.9 16.1 89 1.1 CALM 0 0 0 0 - - 1.2
21/07:30am 18.1 19.7 15.9 87 1.3 WSW 2 7 1 4 - - 0.2
21/07:00am 17.9 19.9 16.1 89 1.1 CALM 0 0 0 0 - - 0.2
21/06:30am 17.6 19.6 16.1 91 0.9 CALM 0 0 0 0 - - 0.2
21/06:00am 16.6 17.9 15.1 91 0.9 SW 2 7 1 4 - - 0.2
21/05:30am 16.3 17.9 14.8 91 0.9 CALM 0 0 0 0 - - 0.2
21/05:00am 16.1 17.3 14.8 92 0.7 WNW 2 6 1 3 - - 0.2
21/04:30am 15.8 17.2 14.3 91 0.9 CALM 0 0 0 0 - - 0.2
21/04:00am 15.8 17.2 14.3 91 0.9 CALM 0 0 0 0 - - 0.2
21/03:30am 15.9 17.3 14.4 91 0.9 CALM 0 0 0 0 - - 0.2
21/03:00am 15.9 17.3 14.4 91 0.9 CALM 0 0 0 0 - - 0.2
21/02:30am 16.1 17.5 14.5 90 0.9 CALM 0 6 0 3 - - 0.2
21/02:00am 16.3 17.4 14.7 90 0.9 NNW 2 7 1 4 - - 0.2
21/01:30am 16.4 18.0 14.8 90 0.9 CALM 0 0 0 0 - - 0.2
21/01:00am 16.4 18.1 15.1 92 0.8 CALM 0 6 0 3 - - 0.2
21/12:30am 16.1 17.7 14.8 92 0.7 CALM 0 6 0 3 - - 0.2
21/12:00am 15.6 16.9 14.0 90 0.9 CALM 0 0 0 0 - - 0.2
 
Date/Time
EST
Temp
°C
App
Temp
°C
Dew
Point
°C
Rel
Hum
%
Delta-T
°C
Wind Press
QNH
hPa
Press
MSL
hPa
Rain since
9am
mm
Dir  Spd
km/h
Gust
km/h
Spd
kts
Gust
kts
20/11:30pm 15.9 17.3 14.3 90 0.9 CALM 0 0 0 0 - - 0.2
20/11:00pm 16.0 17.3 14.2 89 1.0 CALM 0 0 0 0 - - 0.2
20/10:30pm 16.7 18.3 14.9 89 1.0 CALM 0 0 0 0 - - 0.2
20/10:00pm 16.8 18.0 14.8 88 1.2 NNE 2 7 1 4 - - 0.2
20/09:30pm 17.1 17.6 15.1 88 1.2 NNE 6 7 3 4 - - 0.2
20/09:00pm 17.4 18.3 15.0 86 1.4 NNE 4 6 2 3 - - 0.2
20/08:30pm 17.9 18.8 15.2 84 1.6 NNE 4 7 2 4 - - 0.2
20/08:00pm 18.5 19.4 15.2 81 1.9 NNE 4 7 2 4 - - 0.2
20/07:30pm 18.8 19.3 15.1 79 2.2 NNE 6 9 3 5 - - 0.2
20/07:00pm 19.4 19.9 15.1 76 2.5 NNE 6 9 3 5 - - 0.2
20/06:30pm 20.1 20.4 14.9 72 3.1 NNE 7 11 4 6 - - 0.2

Latest Capital City Observations: Canberra | Sydney | Melbourne | Brisbane | Adelaide | Perth | Hobart | Darwin

Other Formats:

Comma delimited format used in spreadsheet applications
http://www.bom.gov.au/fwo/IDQ60901/IDQ60901.95566.axf

JavaScript Object Notation format (JSON) in row-major order
http://www.bom.gov.au/fwo/IDQ60901/IDQ60901.95566.json